sensor_id;sensor_type;location;lat;lon;timestamp;pressure;altitude;pressure_sealevel;temperature;humidity
58955;BME280;45815;52.334;5.024;2024-01-15T00:00:38;100336.09;;;3.70;100.00
58955;BME280;45815;52.334;5.024;2024-01-15T00:03:04;100324.47;;;3.60;100.00
58955;BME280;45815;52.334;5.024;2024-01-15T00:05:29;100329.84;;;3.65;100.00
58955;BME280;45815;52.334;5.024;2024-01-15T00:07:55;100322.84;;;3.62;100.00
58955;BME280;45815;52.334;5.024;2024-01-15T00:10:20;100314.06;;;3.58;100.00
58955;BME280;45815;52.334;5.024;2024-01-15T00:12:45;100305.19;;;3.53;100.00
58955;BME280;45815;52.334;5.024;2024-01-15T00:15:11;100310.53;;;3.56;100.00
58955;BME280;45815;52.334;5.024;2024-01-15T00:17:36;100307.94;;;3.56;100.00
58955;BME280;45815;52.334;5.024;2024-01-15T00:20:02;100316.41;;;3.52;100.00
58955;BME280;45815;52.334;5.024;2024-01-15T00:22:28;100314.28;;;3.65;100.00
58955;BME280;45815;52.334;5.024;2024-01-15T00:24:54;100314.88;;;3.80;100.00
58955;BME280;45815;52.334;5.024;2024-01-15T00:27:19;100308.13;;;3.85;100.00
58955;BME280;45815;52.334;5.024;2024-01-15T00:29:45;100279.94;;;3.72;100.00
58955;BME280;45815;52.334;5.024;2024-01-15T00:32:10;100302.06;;;3.85;100.00
58955;BME280;45815;52.334;5.024;2024-01-15T00:34:36;100301.81;;;3.78;100.00
58955;BME280;45815;52.334;5.024;2024-01-15T00:37:01;100294.03;;;3.78;100.00
58955;BME280;45815;52.334;5.024;2024-01-15T00:39:26;100297.94;;;3.67;100.00
58955;BME280;45815;52.334;5.024;2024-01-15T00:41:52;100290.47;;;3.75;100.00
58955;BME280;45815;52.334;5.024;2024-01-15T00:44:17;100295.84;;;3.79;100.00
58955;BME280;45815;52.334;5.024;2024-01-15T00:46:46;100304.59;;;3.83;100.00
58955;BME280;45815;52.334;5.024;2024-01-15T00:49:15;100307.44;;;3.89;100.00
58955;BME280;45815;52.334;5.024;2024-01-15T00:51:41;100290.50;;;3.76;100.00
58955;BME280;45815;52.334;5.024;2024-01-15T00:54:06;100307.13;;;3.81;100.00
58955;BME280;45815;52.334;5.024;2024-01-15T00:56:32;100276.28;;;3.67;100.00
58955;BME280;45815;52.334;5.024;2024-01-15T00:58:57;100277.41;;;3.73;100.00
58955;BME280;45815;52.334;5.024;2024-01-15T01:01:23;100276.41;;;3.70;100.00
58955;BME280;45815;52.334;5.024;2024-01-15T01:03:48;100278.09;;;3.68;100.00
58955;BME280;45815;52.334;5.024;2024-01-15T01:06:14;100278.19;;;3.71;100.00
58955;BME280;45815;52.334;5.024;2024-01-15T01:08:39;100281.28;;;3.61;100.00
58955;BME280;45815;52.334;5.024;2024-01-15T01:11:05;100278.78;;;3.64;100.00
58955;BME280;45815;52.334;5.024;2024-01-15T01:13:32;100283.69;;;3.56;100.00
58955;BME280;45815;52.334;5.024;2024-01-15T01:15:58;100274.19;;;3.56;100.00
58955;BME280;45815;52.334;5.024;2024-01-15T01:18:23;100276.63;;;3.52;100.00
58955;BME280;45815;52.334;5.024;2024-01-15T01:20:48;100266.16;;;3.50;100.00
58955;BME280;45815;52.334;5.024;2024-01-15T01:23:14;100260.03;;;3.48;100.00
58955;BME280;45815;52.334;5.024;2024-01-15T01:25:39;100264.41;;;3.49;100.00
58955;BME280;45815;52.334;5.024;2024-01-15T01:28:05;100261.84;;;3.51;100.00
58955;BME280;45815;52.334;5.024;2024-01-15T01:30:30;100271.53;;;3.55;100.00
58955;BME280;45815;52.334;5.024;2024-01-15T01:32:55;100284.31;;;3.50;100.00
58955;BME280;45815;52.334;5.024;2024-01-15T01:35:22;100298.50;;;3.58;100.00
58955;BME280;45815;52.334;5.024;2024-01-15T01:37:47;100291.66;;;3.61;100.00
58955;BME280;45815;52.334;5.024;2024-01-15T01:40:12;100295.75;;;3.55;100.00
58955;BME280;45815;52.334;5.024;2024-01-15T01:42:38;100295.53;;;3.49;100.00
58955;BME280;45815;52.334;5.024;2024-01-15T01:45:04;100296.50;;;3.51;100.00
58955;BME280;45815;52.334;5.024;2024-01-15T01:47:29;100292.59;;;3.40;100.00
58955;BME280;45815;52.334;5.024;2024-01-15T01:49:55;100272.75;;;3.20;100.00
58955;BME280;45815;52.334;5.024;2024-01-15T01:52:20;100290.22;;;3.24;100.00
58955;BME280;45815;52.334;5.024;2024-01-15T01:54:46;100282.94;;;3.15;100.00
58955;BME280;45815;52.334;5.024;2024-01-15T01:57:12;100269.13;;;2.93;100.00
58955;BME280;45815;52.334;5.024;2024-01-15T01:59:38;100282.41;;;3.01;100.00
58955;BME280;45815;52.334;5.024;2024-01-15T02:02:04;100283.81;;;2.93;100.00
58955;BME280;45815;52.334;5.024;2024-01-15T02:04:31;100274.91;;;2.86;100.00
58955;BME280;45815;52.334;5.024;2024-01-15T02:06:56;100266.97;;;2.83;100.00
58955;BME280;45815;52.334;5.024;2024-01-15T02:09:22;100264.03;;;2.95;100.00
58955;BME280;45815;52.334;5.024;2024-01-15T02:11:47;100267.16;;;2.88;100.00
58955;BME280;45815;52.334;5.024;2024-01-15T02:14:13;100268.00;;;2.87;100.00
58955;BME280;45815;52.334;5.024;2024-01-15T02:16:39;100268.88;;;2.87;100.00
58955;BME280;45815;52.334;5.024;2024-01-15T02:19:04;100278.38;;;2.87;100.00
58955;BME280;45815;52.334;5.024;2024-01-15T02:21:31;100274.81;;;2.85;100.00
58955;BME280;45815;52.334;5.024;2024-01-15T02:23:57;100268.84;;;2.86;100.00
58955;BME280;45815;52.334;5.024;2024-01-15T02:26:23;100264.34;;;2.82;100.00
58955;BME280;45815;52.334;5.024;2024-01-15T02:28:48;100267.44;;;2.73;100.00
58955;BME280;45815;52.334;5.024;2024-01-15T02:31:15;100271.75;;;2.72;100.00
58955;BME280;45815;52.334;5.024;2024-01-15T02:33:42;100264.56;;;2.67;100.00
58955;BME280;45815;52.334;5.024;2024-01-15T02:36:07;100260.69;;;2.77;100.00
58955;BME280;45815;52.334;5.024;2024-01-15T02:38:33;100262.31;;;2.74;100.00
58955;BME280;45815;52.334;5.024;2024-01-15T02:40:58;100267.63;;;2.78;100.00
58955;BME280;45815;52.334;5.024;2024-01-15T02:43:24;100266.09;;;2.83;100.00
58955;BME280;45815;52.334;5.024;2024-01-15T02:45:49;100263.47;;;2.81;100.00
58955;BME280;45815;52.334;5.024;2024-01-15T02:48:14;100262.44;;;2.78;100.00
58955;BME280;45815;52.334;5.024;2024-01-15T02:50:40;100265.88;;;2.77;100.00
58955;BME280;45815;52.334;5.024;2024-01-15T02:53:05;100278.88;;;2.78;100.00
58955;BME280;45815;52.334;5.024;2024-01-15T02:55:31;100279.13;;;2.84;100.00
58955;BME280;45815;52.334;5.024;2024-01-15T02:57:56;100289.75;;;2.90;100.00
58955;BME280;45815;52.334;5.024;2024-01-15T03:00:21;100299.47;;;2.96;100.00
58955;BME280;45815;52.334;5.024;2024-01-15T03:02:47;100287.50;;;3.00;100.00
58955;BME280;45815;52.334;5.024;2024-01-15T03:05:13;100296.19;;;3.00;100.00
58955;BME280;45815;52.334;5.024;2024-01-15T03:07:39;100287.47;;;2.98;100.00
58955;BME280;45815;52.334;5.024;2024-01-15T03:10:07;100268.00;;;2.87;100.00
58955;BME280;45815;52.334;5.024;2024-01-15T03:12:33;100287.97;;;2.89;100.00
58955;BME280;45815;52.334;5.024;2024-01-15T03:14:58;100271.28;;;2.83;100.00
58955;BME280;45815;52.334;5.024;2024-01-15T03:17:24;100271.16;;;2.80;100.00
58955;BME280;45815;52.334;5.024;2024-01-15T03:19:49;100269.16;;;2.72;100.00
58955;BME280;45815;52.334;5.024;2024-01-15T03:22:15;100262.94;;;2.69;100.00
58955;BME280;45815;52.334;5.024;2024-01-15T03:24:41;100259.47;;;2.68;100.00
58955;BME280;45815;52.334;5.024;2024-01-15T03:27:06;100250.75;;;2.66;100.00
58955;BME280;45815;52.334;5.024;2024-01-15T03:29:32;100249.94;;;2.67;100.00
58955;BME280;45815;52.334;5.024;2024-01-15T03:31:57;100249.88;;;2.66;100.00
58955;BME280;45815;52.334;5.024;2024-01-15T03:34:23;100247.28;;;2.66;100.00
58955;BME280;45815;52.334;5.024;2024-01-15T03:36:48;100241.03;;;2.61;100.00
58955;BME280;45815;52.334;5.024;2024-01-15T03:39:14;100240.06;;;2.59;100.00
58955;BME280;45815;52.334;5.024;2024-01-15T03:41:39;100225.28;;;2.56;100.00
58955;BME280;45815;52.334;5.024;2024-01-15T03:44:05;100230.47;;;2.56;100.00
58955;BME280;45815;52.334;5.024;2024-01-15T03:46:30;100220.88;;;2.53;100.00
58955;BME280;45815;52.334;5.024;2024-01-15T03:48:55;100219.03;;;2.51;100.00
58955;BME280;45815;52.334;5.024;2024-01-15T03:51:21;100215.38;;;2.46;100.00
58955;BME280;45815;52.334;5.024;2024-01-15T03:53:46;100213.59;;;2.45;100.00
58955;BME280;45815;52.334;5.024;2024-01-15T03:56:12;100212.78;;;2.46;100.00
58955;BME280;45815;52.334;5.024;2024-01-15T03:58:37;100202.06;;;2.37;100.00
58955;BME280;45815;52.334;5.024;2024-01-15T04:01:03;100214.28;;;2.41;100.00
58955;BME280;45815;52.334;5.024;2024-01-15T04:03:28;100213.31;;;2.39;100.00
58955;BME280;45815;52.334;5.024;2024-01-15T04:05:54;100210.63;;;2.36;100.00
58955;BME280;45815;52.334;5.024;2024-01-15T04:08:19;100207.97;;;2.34;100.00
58955;BME280;45815;52.334;5.024;2024-01-15T04:10:45;100210.53;;;2.34;100.00
58955;BME280;45815;52.334;5.024;2024-01-15T04:13:10;100208.97;;;2.38;100.00
58955;BME280;45815;52.334;5.024;2024-01-15T04:15:35;100208.97;;;2.38;100.00
58955;BME280;45815;52.334;5.024;2024-01-15T04:18:02;100215.38;;;2.46;100.00
58955;BME280;45815;52.334;5.024;2024-01-15T04:20:28;100210.75;;;2.39;100.00
58955;BME280;45815;52.334;5.024;2024-01-15T04:22:53;100222.63;;;2.33;100.00
58955;BME280;45815;52.334;5.024;2024-01-15T04:25:18;100226.44;;;2.42;100.00
58955;BME280;45815;52.334;5.024;2024-01-15T04:27:44;100216.94;;;2.42;100.00
58955;BME280;45815;52.334;5.024;2024-01-15T04:30:09;100213.59;;;2.45;100.00
58955;BME280;45815;52.334;5.024;2024-01-15T04:32:35;100207.78;;;2.50;100.00
58955;BME280;45815;52.334;5.024;2024-01-15T04:35:01;100192.94;;;2.46;100.00
58955;BME280;45815;52.334;5.024;2024-01-15T04:37:26;100185.38;;;2.51;100.00
58955;BME280;45815;52.334;5.024;2024-01-15T04:39:51;100181.94;;;2.52;100.00
58955;BME280;45815;52.334;5.024;2024-01-15T04:42:20;100192.31;;;2.52;100.00
58955;BME280;45815;52.334;5.024;2024-01-15T04:44:46;100193.31;;;2.56;100.00
58955;BME280;45815;52.334;5.024;2024-01-15T04:47:11;100195.78;;;2.52;100.00
58955;BME280;45815;52.334;5.024;2024-01-15T04:49:36;100195.91;;;2.56;100.00
58955;BME280;45815;52.334;5.024;2024-01-15T04:52:02;100202.03;;;2.58;100.00
58955;BME280;45815;52.334;5.024;2024-01-15T04:54:27;100188.91;;;2.53;100.00
58955;BME280;45815;52.334;5.024;2024-01-15T04:56:53;100194.41;;;2.61;100.00
58955;BME280;45815;52.334;5.024;2024-01-15T04:59:18;100186.72;;;2.64;100.00
58955;BME280;45815;52.334;5.024;2024-01-15T05:01:43;100187.75;;;2.67;100.00
58955;BME280;45815;52.334;5.024;2024-01-15T05:04:09;100191.53;;;2.75;100.00
58955;BME280;45815;52.334;5.024;2024-01-15T05:06:34;100182.53;;;2.88;100.00
58955;BME280;45815;52.334;5.024;2024-01-15T05:09:00;100186.28;;;2.96;100.00
58955;BME280;45815;52.334;5.024;2024-01-15T05:11:25;100184.84;;;3.03;100.00
58955;BME280;45815;52.334;5.024;2024-01-15T05:13:51;100183.88;;;3.01;100.00
58955;BME280;45815;52.334;5.024;2024-01-15T05:16:16;100186.28;;;2.96;100.00
58955;BME280;45815;52.334;5.024;2024-01-15T05:18:41;100182.56;;;2.90;100.00
58955;BME280;45815;52.334;5.024;2024-01-15T05:21:08;100188.53;;;2.87;100.00
58955;BME280;45815;52.334;5.024;2024-01-15T05:23:34;100189.47;;;2.89;100.00
58955;BME280;45815;52.334;5.024;2024-01-15T05:25:59;100187.19;;;2.97;100.00
58955;BME280;45815;52.334;5.024;2024-01-15T05:28:25;100205.56;;;3.03;100.00
58955;BME280;45815;52.334;5.024;2024-01-15T05:30:50;100215.06;;;3.03;100.00
58955;BME280;45815;52.334;5.024;2024-01-15T05:33:16;100203.75;;;3.01;100.00
58955;BME280;45815;52.334;5.024;2024-01-15T05:35:42;100190.59;;;2.96;100.00
58955;BME280;45815;52.334;5.024;2024-01-15T05:38:07;100191.81;;;2.83;100.00
58955;BME280;45815;52.334;5.024;2024-01-15T05:40:33;100185.81;;;2.84;100.00
58955;BME280;45815;52.334;5.024;2024-01-15T05:42:58;100184.94;;;2.84;100.00
58955;BME280;45815;52.334;5.024;2024-01-15T05:45:26;100177.75;;;2.77;100.00
58955;BME280;45815;52.334;5.024;2024-01-15T05:47:52;100184.50;;;2.73;100.00
58955;BME280;45815;52.334;5.024;2024-01-15T05:50:17;100178.25;;;2.68;100.00
58955;BME280;45815;52.334;5.024;2024-01-15T05:52:43;100180.16;;;2.72;100.00
58955;BME280;45815;52.334;5.024;2024-01-15T05:55:08;100177.50;;;2.70;100.00
58955;BME280;45815;52.334;5.024;2024-01-15T05:57:35;100180.22;;;2.73;100.00
58955;BME280;45815;52.334;5.024;2024-01-15T06:00:00;100195.91;;;2.77;100.00
58955;BME280;45815;52.334;5.024;2024-01-15T06:02:25;100176.84;;;2.76;100.00
58955;BME280;45815;52.334;5.024;2024-01-15T06:04:51;100176.03;;;2.77;100.00
58955;BME280;45815;52.334;5.024;2024-01-15T06:07:16;100164.84;;;2.78;100.00
58955;BME280;45815;52.334;5.024;2024-01-15T06:09:42;100167.41;;;2.77;100.00
58955;BME280;45815;52.334;5.024;2024-01-15T06:12:07;100169.84;;;2.73;100.00
58955;BME280;45815;52.334;5.024;2024-01-15T06:14:33;100168.09;;;2.72;100.00
58955;BME280;45815;52.334;5.024;2024-01-15T06:16:59;100164.28;;;2.64;100.00
58955;BME280;45815;52.334;5.024;2024-01-15T06:19:24;100158.03;;;2.59;100.00
58955;BME280;45815;52.334;5.024;2024-01-15T06:21:49;100167.53;;;2.59;100.00
58955;BME280;45815;52.334;5.024;2024-01-15T06:24:15;100164.06;;;2.58;100.00
58955;BME280;45815;52.334;5.024;2024-01-15T06:26:43;100163.91;;;2.55;100.00
58955;BME280;45815;52.334;5.024;2024-01-15T06:29:08;100156.03;;;2.52;100.00
58955;BME280;45815;52.334;5.024;2024-01-15T06:31:33;100163.72;;;2.50;100.00
58955;BME280;45815;52.334;5.024;2024-01-15T06:33:59;100170.81;;;2.54;100.00
58955;BME280;45815;52.334;5.024;2024-01-15T06:36:24;100190.78;;;2.57;100.00
58955;BME280;45815;52.334;5.024;2024-01-15T06:38:50;100191.53;;;2.54;100.00
58955;BME280;45815;52.334;5.024;2024-01-15T06:41:15;100199.28;;;2.53;100.00
58955;BME280;45815;52.334;5.024;2024-01-15T06:43:40;100201.34;;;2.41;100.00
58955;BME280;45815;52.334;5.024;2024-01-15T06:46:06;100192.69;;;2.40;100.00
58955;BME280;45815;52.334;5.024;2024-01-15T06:48:31;100187.00;;;2.49;100.00
58955;BME280;45815;52.334;5.024;2024-01-15T06:50:56;100193.63;;;2.63;100.00
58955;BME280;45815;52.334;5.024;2024-01-15T06:53:22;100187.25;;;2.55;100.00
58955;BME280;45815;52.334;5.024;2024-01-15T06:55:48;100178.28;;;2.47;100.00
58955;BME280;45815;52.334;5.024;2024-01-15T06:58:14;100160.84;;;2.43;100.00
58955;BME280;45815;52.334;5.024;2024-01-15T07:00:39;100169.44;;;2.42;100.00
58955;BME280;45815;52.334;5.024;2024-01-15T07:03:05;100159.91;;;2.41;100.00
58955;BME280;45815;52.334;5.024;2024-01-15T07:05:31;100152.97;;;2.40;100.00
58955;BME280;45815;52.334;5.024;2024-01-15T07:07:57;100158.81;;;2.36;100.00
58955;BME280;45815;52.334;5.024;2024-01-15T07:10:22;100163.91;;;2.32;100.00
58955;BME280;45815;52.334;5.024;2024-01-15T07:12:48;100162.88;;;2.29;100.00
58955;BME280;45815;52.334;5.024;2024-01-15T07:15:14;100168.19;;;2.32;100.00
58955;BME280;45815;52.334;5.024;2024-01-15T07:17:41;100181.19;;;2.33;100.00
58955;BME280;45815;52.334;5.024;2024-01-15T07:20:07;100187.25;;;2.34;100.00
58955;BME280;45815;52.334;5.024;2024-01-15T07:22:35;100180.69;;;2.42;100.00
58955;BME280;45815;52.334;5.024;2024-01-15T07:25:01;100174.16;;;2.52;100.00
58955;BME280;45815;52.334;5.024;2024-01-15T07:27:26;100157.69;;;2.50;100.00
58955;BME280;45815;52.334;5.024;2024-01-15T07:29:52;100152.63;;;2.53;100.00
58955;BME280;45815;52.334;5.024;2024-01-15T07:32:17;100141.00;;;2.43;100.00
58955;BME280;45815;52.334;5.024;2024-01-15T07:34:43;100157.75;;;2.51;100.00
58955;BME280;45815;52.334;5.024;2024-01-15T07:37:08;100143.78;;;2.48;100.00
58955;BME280;45815;52.334;5.024;2024-01-15T07:39:34;100155.16;;;2.51;100.00
58955;BME280;45815;52.334;5.024;2024-01-15T07:42:00;100152.63;;;2.53;100.00
58955;BME280;45815;52.334;5.024;2024-01-15T07:44:25;100147.47;;;2.53;100.00
58955;BME280;45815;52.334;5.024;2024-01-15T07:46:51;100147.47;;;2.53;100.00
58955;BME280;45815;52.334;5.024;2024-01-15T07:49:16;100153.56;;;2.55;100.00
58955;BME280;45815;52.334;5.024;2024-01-15T07:51:42;100149.78;;;2.47;100.00
58955;BME280;45815;52.334;5.024;2024-01-15T07:54:09;100161.88;;;2.46;100.00
58955;BME280;45815;52.334;5.024;2024-01-15T07:56:52;100163.91;;;2.32;100.00
58955;BME280;45815;52.334;5.024;2024-01-15T07:59:18;100182.81;;;2.31;100.00
58955;BME280;45815;52.334;5.024;2024-01-15T08:01:43;100193.31;;;2.14;100.00
58955;BME280;45815;52.334;5.024;2024-01-15T08:04:09;100206.84;;;2.27;100.00
58955;BME280;45815;52.334;5.024;2024-01-15T08:06:37;100195.94;;;2.15;100.00
58955;BME280;45815;52.334;5.024;2024-01-15T08:09:03;100189.66;;;2.29;100.00
58955;BME280;45815;52.334;5.024;2024-01-15T08:11:29;100190.53;;;2.30;100.00
58955;BME280;45815;52.334;5.024;2024-01-15T08:13:55;100176.97;;;2.36;100.00
58955;BME280;45815;52.334;5.024;2024-01-15T08:16:21;100177.34;;;2.45;100.00
58955;BME280;45815;52.334;5.024;2024-01-15T08:18:47;100163.13;;;2.35;100.00
58955;BME280;45815;52.334;5.024;2024-01-15T08:21:12;100171.34;;;2.46;100.00
58955;BME280;45815;52.334;5.024;2024-01-15T08:23:38;100161.53;;;2.39;100.00
58955;BME280;45815;52.334;5.024;2024-01-15T08:26:04;100157.31;;;2.41;100.00
58955;BME280;45815;52.334;5.024;2024-01-15T08:28:30;100164.84;;;2.35;100.00
58955;BME280;45815;52.334;5.024;2024-01-15T08:30:56;100170.97;;;2.37;100.00
58955;BME280;45815;52.334;5.024;2024-01-15T08:33:21;100171.91;;;2.39;100.00
58955;BME280;45815;52.334;5.024;2024-01-15T08:35:46;100165.84;;;2.38;100.00
58955;BME280;45815;52.334;5.024;2024-01-15T08:38:12;100164.00;;;2.36;100.00
58955;BME280;45815;52.334;5.024;2024-01-15T08:40:37;100171.91;;;2.39;100.00
58955;BME280;45815;52.334;5.024;2024-01-15T08:43:03;100170.97;;;2.37;100.00
58955;BME280;45815;52.334;5.024;2024-01-15T08:45:28;100164.69;;;2.31;100.00
58955;BME280;45815;52.334;5.024;2024-01-15T08:47:53;100168.19;;;2.32;100.00
58955;BME280;45815;52.334;5.024;2024-01-15T08:50:19;100162.00;;;2.28;100.00
58955;BME280;45815;52.334;5.024;2024-01-15T08:52:44;100158.72;;;2.32;100.00
58955;BME280;45815;52.334;5.024;2024-01-15T08:55:11;100144.63;;;2.26;100.00
58955;BME280;45815;52.334;5.024;2024-01-15T08:57:38;100145.06;;;2.37;100.00
58955;BME280;45815;52.334;5.024;2024-01-15T09:00:04;100152.00;;;2.38;100.00
58955;BME280;45815;52.334;5.024;2024-01-15T09:02:34;100144.94;;;2.33;100.00
58955;BME280;45815;52.334;5.024;2024-01-15T09:05:00;100141.16;;;2.25;100.00
58955;BME280;45815;52.334;5.024;2024-01-15T09:07:25;100162.47;;;2.41;100.00
58955;BME280;45815;52.334;5.024;2024-01-15T09:09:52;100150.28;;;2.38;100.00
58955;BME280;45815;52.334;5.024;2024-01-15T09:12:18;100158.44;;;2.47;100.00
58955;BME280;45815;52.334;5.024;2024-01-15T09:14:46;100165.16;;;2.42;100.00
58955;BME280;45815;52.334;5.024;2024-01-15T09:17:11;100159.38;;;2.49;100.00
58955;BME280;45815;52.334;5.024;2024-01-15T09:19:37;100170.19;;;2.60;100.00
58955;BME280;45815;52.334;5.024;2024-01-15T09:22:04;100179.91;;;2.66;100.00
58955;BME280;45815;52.334;5.024;2024-01-15T09:24:29;100166.19;;;2.68;100.00
58955;BME280;45815;52.334;5.024;2024-01-15T09:26:55;100153.88;;;2.63;100.00
58955;BME280;45815;52.334;5.024;2024-01-15T09:29:20;100172.44;;;2.73;100.00
58955;BME280;45815;52.334;5.024;2024-01-15T09:31:45;100177.63;;;2.73;100.00
58955;BME280;45815;52.334;5.024;2024-01-15T09:34:11;100180.38;;;2.78;100.00
58955;BME280;45815;52.334;5.024;2024-01-15T09:36:40;100186.03;;;2.68;100.00
58955;BME280;45815;52.334;5.024;2024-01-15T09:39:08;100170.47;;;2.89;100.00
58955;BME280;45815;52.334;5.024;2024-01-15T09:41:37;100169.75;;;2.93;100.00
58955;BME280;45815;52.334;5.024;2024-01-15T09:44:03;100160.44;;;2.98;100.00
58955;BME280;45815;52.334;5.024;2024-01-15T09:46:31;100147.16;;;3.13;100.00
58955;BME280;45815;52.334;5.024;2024-01-15T09:48:57;100148.72;;;3.32;100.00
58955;BME280;45815;52.334;5.024;2024-01-15T09:51:24;100158.13;;;3.52;100.00
58955;BME280;45815;52.334;5.024;2024-01-15T09:53:50;100169.09;;;3.68;100.00
58955;BME280;45815;52.334;5.024;2024-01-15T09:56:16;100172.72;;;3.73;100.00
58955;BME280;45815;52.334;5.024;2024-01-15T09:58:42;100179.00;;;3.55;100.00
58955;BME280;45815;52.334;5.024;2024-01-15T10:01:08;100157.47;;;3.34;100.00
58955;BME280;45815;52.334;5.024;2024-01-15T10:03:34;100177.50;;;3.38;100.00
58955;BME280;45815;52.334;5.024;2024-01-15T10:05:59;100170.34;;;3.32;100.00
58955;BME280;45815;52.334;5.024;2024-01-15T10:08:25;100185.03;;;3.32;100.00
58955;BME280;45815;52.334;5.024;2024-01-15T10:10:51;100190.22;;;3.32;100.00
58955;BME280;45815;52.334;5.024;2024-01-15T10:13:17;100188.59;;;3.34;100.00
58955;BME280;45815;52.334;5.024;2024-01-15T10:15:45;100188.94;;;3.43;100.00
58955;BME280;45815;52.334;5.024;2024-01-15T10:18:12;100197.56;;;3.66;100.00
58955;BME280;45815;52.334;5.024;2024-01-15T10:20:38;100173.53;;;3.48;100.00
58955;BME280;45815;52.334;5.024;2024-01-15T10:23:04;100201.41;;;3.53;100.00
58955;BME280;45815;52.334;5.024;2024-01-15T10:25:30;100207.16;;;3.69;100.00
58955;BME280;45815;52.334;5.024;2024-01-15T10:28:03;100207.88;;;3.65;100.00
58955;BME280;45815;52.334;5.024;2024-01-15T10:30:29;100210.69;;;3.47;100.00
58955;BME280;45815;52.334;5.024;2024-01-15T10:32:59;100208.47;;;3.57;100.00
58955;BME280;45815;52.334;5.024;2024-01-15T10:35:32;100211.47;;;3.44;100.00
58955;BME280;45815;52.334;5.024;2024-01-15T10:37:58;100223.16;;;3.33;100.00
58955;BME280;45815;52.334;5.024;2024-01-15T10:40:25;100228.63;;;3.41;100.00
58955;BME280;45815;52.334;5.024;2024-01-15T10:42:50;100221.19;;;3.05;100.00
58955;BME280;45815;52.334;5.024;2024-01-15T10:45:16;100224.75;;;3.07;100.00
58955;BME280;45815;52.334;5.024;2024-01-15T10:47:42;100228.78;;;3.00;100.00
58955;BME280;45815;52.334;5.024;2024-01-15T10:50:09;100219.44;;;2.83;100.00
58955;BME280;45815;52.334;5.024;2024-01-15T10:52:39;100231.81;;;2.90;100.00
58955;BME280;45815;52.334;5.024;2024-01-15T10:55:11;100226.63;;;2.90;100.00
58955;BME280;45815;52.334;5.024;2024-01-15T10:57:37;100235.84;;;3.04;100.00
58955;BME280;45815;52.334;5.024;2024-01-15T11:00:06;100236.47;;;3.20;100.00
58955;BME280;45815;52.334;5.024;2024-01-15T11:02:35;100233.16;;;3.24;100.00
58955;BME280;45815;52.334;5.024;2024-01-15T11:05:01;100229.88;;;3.28;100.00
58955;BME280;45815;52.334;5.024;2024-01-15T11:07:27;100233.38;;;3.30;100.00
58955;BME280;45815;52.334;5.024;2024-01-15T11:09:52;100218.66;;;3.29;100.00
58955;BME280;45815;52.334;5.024;2024-01-15T11:12:18;100232.63;;;3.32;100.00
58955;BME280;45815;52.334;5.024;2024-01-15T11:14:48;100230.97;;;3.34;100.00
58955;BME280;45815;52.334;5.024;2024-01-15T11:17:15;100225.50;;;3.49;100.00
58955;BME280;45815;52.334;5.024;2024-01-15T11:22:11;100217.59;;;3.24;100.00
58955;BME280;45815;52.334;5.024;2024-01-15T11:24:57;100217.09;;;3.56;100.00
58955;BME280;45815;52.334;5.024;2024-01-15T11:27:42;100209.31;;;3.56;100.00
58955;BME280;45815;52.334;5.024;2024-01-15T11:30:09;100217.34;;;3.87;100.00
58955;BME280;45815;52.334;5.024;2024-01-15T11:32:35;100222.53;;;3.87;100.00
58955;BME280;45815;52.334;5.024;2024-01-15T11:35:02;100225.50;;;4.21;100.00
58955;BME280;45815;52.334;5.024;2024-01-15T11:37:29;100231.25;;;4.64;100.00
58955;BME280;45815;52.334;5.024;2024-01-15T11:40:17;100217.94;;;4.80;100.00
58955;BME280;45815;52.334;5.024;2024-01-15T11:42:44;100218.22;;;4.90;100.00
58955;BME280;45815;52.334;5.024;2024-01-15T11:45:10;100202.75;;;4.94;100.00
58955;BME280;45815;52.334;5.024;2024-01-15T11:48:13;100223.53;;;5.21;100.00
58955;BME280;45815;52.334;5.024;2024-01-15T11:50:47;100220.03;;;5.80;100.00
58955;BME280;45815;52.334;5.024;2024-01-15T11:53:26;100213.75;;;6.02;100.00
58955;BME280;45815;52.334;5.024;2024-01-15T11:55:57;100228.59;;;6.38;100.00
58955;BME280;45815;52.334;5.024;2024-01-15T11:58:23;100218.97;;;6.70;100.00
58955;BME280;45815;52.334;5.024;2024-01-15T12:00:49;100221.88;;;6.47;100.00
58955;BME280;45815;52.334;5.024;2024-01-15T12:03:15;100231.50;;;6.50;100.00
58955;BME280;45815;52.334;5.024;2024-01-15T12:05:41;100229.63;;;6.44;100.00
58955;BME280;45815;52.334;5.024;2024-01-15T12:08:09;100261.66;;;6.40;100.00
58955;BME280;45815;52.334;5.024;2024-01-15T12:10:39;100284.56;;;6.19;100.00
58955;BME280;45815;52.334;5.024;2024-01-15T12:13:10;100284.66;;;5.63;100.00
58955;BME280;45815;52.334;5.024;2024-01-15T12:15:35;100286.31;;;5.32;100.00
58955;BME280;45815;52.334;5.024;2024-01-15T12:18:02;100282.06;;;4.81;100.00
58955;BME280;45815;52.334;5.024;2024-01-15T12:20:29;100270.88;;;4.33;100.00
58955;BME280;45815;52.334;5.024;2024-01-15T12:22:55;100265.28;;;4.20;100.00
58955;BME280;45815;52.334;5.024;2024-01-15T12:25:21;100261.22;;;4.03;100.00
58955;BME280;45815;52.334;5.024;2024-01-15T12:27:47;100266.16;;;3.97;100.00
58955;BME280;45815;52.334;5.024;2024-01-15T12:30:13;100268.34;;;3.86;100.00
58955;BME280;45815;52.334;5.024;2024-01-15T12:32:42;100265.66;;;3.83;100.00
58955;BME280;45815;52.334;5.024;2024-01-15T12:35:08;100254.56;;;3.87;100.00
58955;BME280;45815;52.334;5.024;2024-01-15T12:37:42;100267.56;;;3.87;100.00
58955;BME280;45815;52.334;5.024;2024-01-15T12:40:09;100279.50;;;3.84;100.00
58955;BME280;45815;52.334;5.024;2024-01-15T12:42:41;100264.59;;;3.78;100.00
58955;BME280;45815;52.334;5.024;2024-01-15T12:45:08;100278.03;;;3.90;100.00
58955;BME280;45815;52.334;5.024;2024-01-15T12:47:34;100288.94;;;4.54;100.00